Time;durP1;ratioP1;P1;durP2;ratioP2;P2;SDS_P1;SDS_P2;PMS_P1;PMS_P2;Temp;Humidity;BMP_temperature;BMP_pressure;BME280_temperature;BME280_humidity;BME280_pressure;Samples;Min_cycle;Max_cycle;Signal;HPM_P1;HPM_P2
2023/02/11 00:04:38;;;;;;;0.20;0.10;;;6.90;99.90;;;;;;21140733;28;20407;-65
2023/02/11 00:14:44;;;;;;;0.20;0.10;;;6.80;99.90;;;;;;21139337;28;20394;-65
2023/02/11 00:24:47;;;;;;;0.20;0.10;;;7.00;99.90;;;;;;21122011;28;20414;-65
2023/02/11 00:34:54;;;;;;;0.20;0.10;;;7.00;99.90;;;;;;21137470;28;20495;-65
2023/02/11 00:44:58;;;;;;;0.20;0.10;;;6.80;99.90;;;;;;21154270;28;20469;-64
2023/02/11 00:55:03;;;;;;;0.20;0.10;;;6.50;99.90;;;;;;21155636;28;20509;-66
2023/02/11 01:05:08;;;;;;;0.20;0.10;;;6.40;99.90;;;;;;21154554;28;20940;-66
2023/02/11 01:15:16;;;;;;;0.20;0.00;;;6.40;99.90;;;;;;21153896;28;20544;-66
2023/02/11 01:25:20;;;;;;;0.20;0.10;;;6.20;99.90;;;;;;21153154;28;20961;-66
2023/02/11 01:35:25;;;;;;;0.20;0.10;;;6.30;99.90;;;;;;21134062;28;20540;-66
2023/02/11 01:45:57;;;;;;;0.20;0.10;;;6.40;99.90;;;;;;21150357;28;20470;-65
2023/02/11 02:06:30;;;;;;;0.20;0.10;;;6.20;99.90;;;;;;21131907;28;20425;-64
2023/02/11 02:16:36;;;;;;;0.20;0.10;;;6.20;99.90;;;;;;21148289;28;20430;-65
2023/02/11 02:27:19;;;;;;;0.20;0.10;;;6.30;99.90;;;;;;21163712;27;20848;-66
2023/02/11 02:37:30;;;;;;;0.20;0.10;;;6.20;99.90;;;;;;21133231;27;20414;-66
2023/02/11 02:47:34;;;;;;;0.20;0.10;;;6.10;99.90;;;;;;21146213;28;20890;-66
2023/02/11 02:58:06;;;;;;;0.20;0.10;;;5.80;99.90;;;;;;21146444;28;20402;-65
2023/02/11 03:08:16;;;;;;;0.20;0.10;;;5.70;99.90;;;;;;21149220;28;20410;-65
2023/02/11 03:18:25;;;;;;;0.20;0.10;;;5.70;99.90;;;;;;21162861;28;20461;-66
2023/02/11 03:28:32;;;;;;;0.20;0.10;;;5.50;99.90;;;;;;21143549;28;20418;-66
2023/02/11 03:38:42;;;;;;;0.20;0.10;;;5.50;99.90;;;;;;21144886;28;20784;-66
2023/02/11 03:48:51;;;;;;;0.20;0.10;;;5.50;99.90;;;;;;21160175;28;20454;-67
2023/02/11 03:58:57;;;;;;;0.20;0.10;;;5.40;99.90;;;;;;21159790;28;20398;-66
2023/02/11 04:09:01;;;;;;;0.20;0.10;;;5.50;99.90;;;;;;21140620;28;20415;-66
2023/02/11 04:19:06;;;;;;;0.20;0.10;;;5.50;99.90;;;;;;21134928;28;20388;-66
2023/02/11 04:29:10;;;;;;;0.20;0.10;;;5.60;99.90;;;;;;21153930;28;20455;-66
2023/02/11 04:39:15;;;;;;;0.20;0.10;;;5.50;99.90;;;;;;21155579;28;20398;-65
2023/02/11 04:49:19;;;;;;;0.20;0.10;;;5.40;99.90;;;;;;21120670;28;20414;-66
2023/02/11 04:59:24;;;;;;;0.20;0.10;;;5.50;99.90;;;;;;21154792;28;20573;-66
2023/02/11 05:09:28;;;;;;;0.20;0.10;;;5.50;99.90;;;;;;21135822;28;20943;-65
2023/02/11 05:19:34;;;;;;;0.20;0.10;;;5.50;99.90;;;;;;21135268;28;20914;-67
2023/02/11 05:29:38;;;;;;;0.20;0.10;;;5.40;99.90;;;;;;21134621;28;20507;-67
2023/02/11 05:39:43;;;;;;;0.20;0.10;;;5.40;99.90;;;;;;21134165;28;20434;-67
2023/02/11 05:49:47;;;;;;;0.20;0.10;;;5.40;99.90;;;;;;21151089;28;20449;-66
2023/02/11 05:59:53;;;;;;;0.20;0.10;;;5.30;99.90;;;;;;21150778;28;20411;-66
2023/02/11 06:09:58;;;;;;;0.20;0.10;;;5.30;99.90;;;;;;21149984;28;21227;-67
2023/02/11 06:20:06;;;;;;;0.20;0.10;;;5.20;99.90;;;;;;21131049;28;20445;-67
2023/02/11 06:30:11;;;;;;;0.20;0.10;;;5.10;99.90;;;;;;21148096;28;20497;-67
2023/02/11 06:40:16;;;;;;;0.20;0.10;;;5.20;99.90;;;;;;21128807;28;20407;-66
2023/02/11 06:50:20;;;;;;;0.20;0.10;;;5.00;99.90;;;;;;21127926;28;20410;-66
2023/02/11 07:00:27;;;;;;;0.20;0.10;;;4.90;99.90;;;;;;21127587;28;20787;-65
2023/02/11 07:10:31;;;;;;;0.20;0.10;;;5.00;99.90;;;;;;21126887;28;20398;-65
2023/02/11 07:20:37;;;;;;;0.20;0.10;;;5.20;99.90;;;;;;21144709;28;20453;-68
2023/02/11 07:30:41;;;;;;;0.20;0.10;;;5.20;99.90;;;;;;21125731;28;20411;-67
2023/02/11 07:40:46;;;;;;;0.20;0.10;;;5.30;99.90;;;;;;21144810;28;20554;-66
2023/02/11 07:50:50;;;;;;;0.20;0.10;;;5.50;99.90;;;;;;21142430;28;20418;-66
2023/02/11 08:00:55;;;;;;;0.20;0.10;;;5.80;99.90;;;;;;21129515;28;20463;-67
2023/02/11 08:11:05;;;;;;;0.20;0.10;;;6.20;99.90;;;;;;21157694;28;20395;-66
2023/02/11 08:21:10;;;;;;;0.20;0.10;;;6.50;99.90;;;;;;21152494;28;20406;-65
2023/02/11 08:31:16;;;;;;;0.20;0.10;;;6.70;99.90;;;;;;21153295;28;20797;-66
2023/02/11 08:41:21;;;;;;;0.20;0.10;;;7.00;99.90;;;;;;21133575;28;20417;-66
2023/02/11 08:51:27;;;;;;;0.20;0.10;;;7.40;99.90;;;;;;21154027;28;20448;-65
2023/02/11 09:01:33;;;;;;;0.20;0.10;;;7.80;99.90;;;;;;21114361;28;20403;-66
2023/02/11 09:11:38;;;;;;;0.20;0.10;;;8.30;99.90;;;;;;21149077;28;20422;-65
2023/02/11 09:21:43;;;;;;;0.20;0.10;;;8.80;99.90;;;;;;21149727;28;20423;-66
2023/02/11 09:31:47;;;;;;;0.20;0.10;;;9.40;99.90;;;;;;21128259;28;20494;-66
2023/02/11 09:42:16;;;;;;;0.20;0.10;;;9.80;99.90;;;;;;21112174;28;20831;-63
2023/02/11 09:52:32;;;;;;;0.20;0.00;;;10.20;99.90;;;;;;21147671;28;20410;-64
2023/02/11 10:03:03;;;;;;;0.20;0.00;;;10.60;99.90;;;;;;21147067;28;20406;-64
2023/02/11 10:13:39;;;;;;;0.20;0.10;;;11.40;99.90;;;;;;21126465;28;20478;-65
2023/02/11 10:23:51;;;;;;;0.20;0.00;;;11.50;99.90;;;;;;21122229;28;20566;-66
2023/02/11 10:34:00;;;;;;;0.20;0.00;;;11.90;99.90;;;;;;21108517;28;20415;-65
2023/02/11 10:44:07;;;;;;;0.20;0.10;;;12.10;99.90;;;;;;21125050;28;20479;-65
2023/02/11 10:54:18;;;;;;;0.20;0.00;;;12.20;99.90;;;;;;21140466;28;20800;-67
2023/02/11 11:04:39;;;;;;;0.20;0.10;;;13.00;99.90;;;;;;21138041;28;20419;-63
2023/02/11 11:14:54;;;;;;;0.40;0.40;;;13.80;99.90;;;;;;21114319;28;20390;-66
2023/02/11 11:25:00;;;;;;;0.20;0.10;;;14.20;99.90;;;;;;21139942;28;21318;-65
2023/02/11 11:35:08;;;;;;;0.20;0.10;;;14.30;99.90;;;;;;21117359;28;20403;-67
2023/02/11 11:45:26;;;;;;;0.20;0.10;;;14.50;99.90;;;;;;21122763;28;20438;-66
2023/02/11 11:55:36;;;;;;;0.20;0.10;;;15.20;99.90;;;;;;21137223;28;20451;-67
2023/02/11 12:05:53;;;;;;;0.20;0.10;;;15.20;99.90;;;;;;21154224;28;20472;-65
2023/02/11 12:16:08;;;;;;;0.20;0.10;;;15.80;99.90;;;;;;21152490;28;20474;-65
2023/02/11 12:26:18;;;;;;;0.20;0.10;;;16.20;99.90;;;;;;21150971;28;20441;-66
2023/02/11 12:36:35;;;;;;;0.20;0.10;;;15.80;99.90;;;;;;21153231;28;20448;-67
2023/02/11 12:46:47;;;;;;;0.20;0.10;;;16.40;99.90;;;;;;21147972;28;20421;-67
2023/02/11 12:56:58;;;;;;;0.73;0.73;;;16.40;99.90;;;;;;21150774;28;20391;-67
2023/02/11 13:07:10;;;;;;;1.00;1.00;;;17.50;99.90;;;;;;21151675;28;20457;-67
2023/02/11 13:17:21;;;;;;;0.20;0.10;;;18.00;99.90;;;;;;21150507;28;20410;-69
2023/02/11 13:27:37;;;;;;;0.20;0.10;;;17.50;99.90;;;;;;21149764;28;20509;-68
2023/02/11 13:37:47;;;;;;;0.20;0.10;;;17.10;99.90;;;;;;21113586;28;20395;-65
2023/02/11 13:47:58;;;;;;;0.20;0.10;;;17.50;99.90;;;;;;21100046;28;20901;-67
2023/02/11 13:58:18;;;;;;;0.20;0.10;;;17.80;99.90;;;;;;21128061;28;20556;-69
2023/02/11 14:19:01;;;;;;;0.20;0.10;;;18.40;99.90;;;;;;21146140;28;20407;-68
2023/02/11 14:29:17;;;;;;;0.20;0.10;;;18.50;99.90;;;;;;21145466;28;20418;-68
2023/02/11 14:39:41;;;;;;;0.20;0.10;;;18.60;99.90;;;;;;21142554;28;20570;-67
2023/02/11 14:49:47;;;;;;;0.20;0.10;;;18.40;99.90;;;;;;21139873;28;20407;-67
2023/02/11 15:00:01;;;;;;;0.20;0.10;;;18.40;99.90;;;;;;21138337;28;20388;-66
2023/02/11 15:10:16;;;;;;;0.20;0.10;;;18.20;99.90;;;;;;21119162;28;20414;-66
2023/02/11 15:20:24;;;;;;;0.20;0.10;;;18.20;99.90;;;;;;21120472;28;20403;-64
2023/02/11 15:30:32;;;;;;;0.20;0.10;;;18.20;99.90;;;;;;21104004;28;20390;-66
2023/02/11 15:40:37;;;;;;;0.20;0.10;;;17.90;99.90;;;;;;21120634;28;20398;-66
2023/02/11 15:50:48;;;;;;;0.20;0.10;;;16.10;99.90;;;;;;21134908;28;20825;-66
2023/02/11 16:00:58;;;;;;;0.20;0.10;;;16.30;99.90;;;;;;21136624;28;20503;-66
2023/02/11 16:11:07;;;;;;;0.20;0.10;;;16.30;99.90;;;;;;21135904;28;20739;-69
2023/02/11 16:21:16;;;;;;;0.20;0.10;;;16.50;99.90;;;;;;21129602;28;20527;-67
2023/02/11 16:31:23;;;;;;;0.20;0.10;;;16.20;99.90;;;;;;21115695;28;20893;-66
2023/02/11 16:41:27;;;;;;;0.20;0.10;;;14.70;99.90;;;;;;21142080;28;20395;-66
2023/02/11 16:51:32;;;;;;;0.20;0.10;;;13.70;99.90;;;;;;21121275;28;20421;-67
2023/02/11 17:01:37;;;;;;;0.20;0.10;;;12.90;99.90;;;;;;21145740;28;20798;-64
2023/02/11 17:11:42;;;;;;;0.20;0.10;;;12.20;99.90;;;;;;21110344;28;20418;-66
2023/02/11 17:21:48;;;;;;;0.20;0.00;;;11.50;99.90;;;;;;21146340;28;20425;-68
2023/02/11 17:31:54;;;;;;;0.20;0.10;;;11.10;99.90;;;;;;21146159;28;20495;-65
2023/02/11 17:41:58;;;;;;;0.20;0.10;;;10.20;99.90;;;;;;21144047;28;20436;-65
2023/02/11 17:52:03;;;;;;;0.20;0.10;;;9.60;99.90;;;;;;21123279;28;20444;-65
2023/02/11 18:02:08;;;;;;;0.20;0.10;;;9.30;99.90;;;;;;21142819;28;20394;-65
2023/02/11 18:12:13;;;;;;;0.20;0.10;;;8.80;99.90;;;;;;21137908;28;20425;-68
2023/02/11 18:22:17;;;;;;;0.20;0.10;;;8.60;99.90;;;;;;21136357;28;20406;-64
2023/02/11 18:32:23;;;;;;;0.20;0.10;;;8.30;99.90;;;;;;21136136;28;20497;-65
2023/02/11 18:42:26;;;;;;;0.20;0.10;;;8.00;99.90;;;;;;21110445;28;20516;-66
2023/02/11 18:52:33;;;;;;;0.20;0.10;;;7.80;99.90;;;;;;21092120;27;20956;-68
2023/02/11 19:02:37;;;;;;;0.20;0.10;;;7.60;99.90;;;;;;21132383;28;20410;-67
2023/02/11 19:12:42;;;;;;;0.20;0.10;;;7.60;99.90;;;;;;21180212;28;20449;-67
2023/02/11 19:22:46;;;;;;;0.20;0.10;;;7.40;99.90;;;;;;21218817;28;20385;-64
2023/02/11 19:32:55;;;;;;;0.20;0.10;;;7.10;99.90;;;;;;21186316;28;20874;-65
2023/02/11 19:42:59;;;;;;;0.20;0.10;;;6.90;99.90;;;;;;21086223;28;20397;-66
2023/02/11 19:53:04;;;;;;;0.20;0.10;;;7.00;99.90;;;;;;21123482;28;20810;-68
2023/02/11 20:03:09;;;;;;;0.20;0.10;;;6.80;99.90;;;;;;21150062;28;20410;-66
2023/02/11 20:13:14;;;;;;;0.20;0.10;;;6.70;99.90;;;;;;21127076;28;20441;-66
2023/02/11 20:23:18;;;;;;;0.20;0.10;;;6.70;99.90;;;;;;21132929;28;20414;-67
2023/02/11 20:33:24;;;;;;;0.20;0.10;;;6.70;99.90;;;;;;21146899;28;20406;-64
2023/02/11 20:43:31;;;;;;;0.20;0.10;;;6.40;99.90;;;;;;21148648;28;20468;-66
2023/02/11 20:53:37;;;;;;;0.20;0.10;;;6.50;99.90;;;;;;21126283;28;20497;-65
2023/02/11 21:03:42;;;;;;;0.20;0.10;;;6.60;99.90;;;;;;21115148;28;20915;-66
2023/02/11 21:13:48;;;;;;;0.20;0.10;;;6.80;99.90;;;;;;21146689;28;21018;-66
2023/02/11 21:23:52;;;;;;;0.20;0.10;;;6.80;99.90;;;;;;21141284;28;20858;-67
2023/02/11 21:33:58;;;;;;;0.20;0.10;;;7.00;99.90;;;;;;21127683;28;20451;-69
2023/02/11 21:44:02;;;;;;;0.20;0.10;;;7.00;99.90;;;;;;21144142;28;20422;-63
2023/02/11 21:54:08;;;;;;;0.20;0.10;;;6.90;99.90;;;;;;21128913;28;20516;-67
2023/02/11 22:04:12;;;;;;;0.20;0.10;;;6.50;99.90;;;;;;21125449;28;20455;-67
2023/02/11 22:14:17;;;;;;;0.20;0.10;;;5.90;99.90;;;;;;21123980;28;20425;-66
2023/02/11 22:24:21;;;;;;;0.20;0.10;;;6.00;99.90;;;;;;21124167;28;20456;-66
2023/02/11 22:34:26;;;;;;;0.20;0.10;;;5.80;99.90;;;;;;21142529;28;20460;-66
2023/02/11 22:44:30;;;;;;;0.20;0.10;;;5.80;99.90;;;;;;21119435;28;20461;-66
2023/02/11 22:54:36;;;;;;;0.20;0.10;;;6.10;99.90;;;;;;21124730;28;20398;-67
2023/02/11 23:04:40;;;;;;;0.20;0.10;;;6.30;99.90;;;;;;21120276;28;20505;-66
2023/02/11 23:14:45;;;;;;;0.20;0.10;;;6.40;99.90;;;;;;21143949;28;20402;-66
2023/02/11 23:24:48;;;;;;;0.20;0.10;;;6.20;99.90;;;;;;21146473;27;20463;-65
2023/02/11 23:34:54;;;;;;;0.20;0.10;;;6.30;99.90;;;;;;21161851;28;20410;-66
2023/02/11 23:44:58;;;;;;;0.20;0.10;;;6.10;99.90;;;;;;21160687;28;20410;-66
2023/02/11 23:55:04;;;;;;;0.20;0.10;;;5.90;99.90;;;;;;21159701;28;20402;-65
